sensor_id;sensor_type;location;lat;lon;timestamp;P1;durP1;ratioP1;P2;durP2;ratioP2
52798;SDS011;38667;42.872;74.622;2024-01-30T00:00:12;104.17;;;53.23;;
52798;SDS011;38667;42.872;74.622;2024-01-30T00:02:39;593.03;;;150.60;;
52798;SDS011;38667;42.872;74.622;2024-01-30T00:05:07;565.77;;;148.40;;
52798;SDS011;38667;42.872;74.622;2024-01-30T00:07:33;596.17;;;153.17;;
52798;SDS011;38667;42.872;74.622;2024-01-30T00:10:00;549.40;;;142.53;;
52798;SDS011;38667;42.872;74.622;2024-01-30T00:12:26;498.30;;;125.90;;
52798;SDS011;38667;42.872;74.622;2024-01-30T00:14:52;222.63;;;67.77;;
52798;SDS011;38667;42.872;74.622;2024-01-30T00:17:19;147.53;;;61.73;;
52798;SDS011;38667;42.872;74.622;2024-01-30T00:19:45;127.60;;;58.73;;
52798;SDS011;38667;42.872;74.622;2024-01-30T00:22:13;99.10;;;49.47;;
52798;SDS011;38667;42.872;74.622;2024-01-30T00:24:39;97.43;;;44.23;;
52798;SDS011;38667;42.872;74.622;2024-01-30T00:27:06;95.63;;;44.17;;
52798;SDS011;38667;42.872;74.622;2024-01-30T00:29:32;93.43;;;46.30;;
52798;SDS011;38667;42.872;74.622;2024-01-30T00:31:59;87.37;;;44.83;;
52798;SDS011;38667;42.872;74.622;2024-01-30T00:34:25;93.13;;;43.43;;
52798;SDS011;38667;42.872;74.622;2024-01-30T00:36:52;92.17;;;43.57;;
52798;SDS011;38667;42.872;74.622;2024-01-30T00:39:20;88.33;;;44.00;;
52798;SDS011;38667;42.872;74.622;2024-01-30T00:41:46;88.20;;;41.53;;
52798;SDS011;38667;42.872;74.622;2024-01-30T00:44:13;107.50;;;48.87;;
52798;SDS011;38667;42.872;74.622;2024-01-30T00:46:39;120.97;;;53.00;;
52798;SDS011;38667;42.872;74.622;2024-01-30T00:49:05;114.60;;;50.63;;
52798;SDS011;38667;42.872;74.622;2024-01-30T00:51:32;114.87;;;48.97;;
52798;SDS011;38667;42.872;74.622;2024-01-30T00:53:58;135.30;;;54.33;;
52798;SDS011;38667;42.872;74.622;2024-01-30T00:56:26;138.13;;;50.70;;
52798;SDS011;38667;42.872;74.622;2024-01-30T00:58:53;115.17;;;50.80;;
52798;SDS011;38667;42.872;74.622;2024-01-30T01:01:19;84.80;;;37.33;;
52798;SDS011;38667;42.872;74.622;2024-01-30T01:03:46;71.67;;;32.20;;
52798;SDS011;38667;42.872;74.622;2024-01-30T01:06:12;72.77;;;35.37;;
52798;SDS011;38667;42.872;74.622;2024-01-30T01:08:38;63.77;;;32.27;;
52798;SDS011;38667;42.872;74.622;2024-01-30T01:11:05;57.40;;;28.27;;
52798;SDS011;38667;42.872;74.622;2024-01-30T01:13:33;66.13;;;32.30;;
52798;SDS011;38667;42.872;74.622;2024-01-30T01:15:59;71.87;;;32.80;;
52798;SDS011;38667;42.872;74.622;2024-01-30T01:18:25;68.43;;;32.13;;
52798;SDS011;38667;42.872;74.622;2024-01-30T01:20:52;62.57;;;32.73;;
52798;SDS011;38667;42.872;74.622;2024-01-30T01:23:18;64.40;;;33.07;;
52798;SDS011;38667;42.872;74.622;2024-01-30T01:25:44;69.97;;;34.60;;
52798;SDS011;38667;42.872;74.622;2024-01-30T01:28:11;67.07;;;34.43;;
52798;SDS011;38667;42.872;74.622;2024-01-30T01:30:39;76.00;;;37.67;;
52798;SDS011;38667;42.872;74.622;2024-01-30T01:33:05;81.83;;;40.73;;
52798;SDS011;38667;42.872;74.622;2024-01-30T01:35:32;89.80;;;41.73;;
52798;SDS011;38667;42.872;74.622;2024-01-30T01:37:58;103.93;;;47.37;;
52798;SDS011;38667;42.872;74.622;2024-01-30T01:40:24;69.87;;;35.77;;
52798;SDS011;38667;42.872;74.622;2024-01-30T01:42:51;66.33;;;33.87;;
52798;SDS011;38667;42.872;74.622;2024-01-30T01:45:19;67.20;;;34.77;;
52798;SDS011;38667;42.872;74.622;2024-01-30T01:47:47;73.63;;;37.73;;
52798;SDS011;38667;42.872;74.622;2024-01-30T01:50:16;86.77;;;39.80;;
52798;SDS011;38667;42.872;74.622;2024-01-30T01:52:43;83.10;;;41.40;;
52798;SDS011;38667;42.872;74.622;2024-01-30T01:55:12;83.33;;;42.10;;
52798;SDS011;38667;42.872;74.622;2024-01-30T01:57:39;72.23;;;38.13;;
52798;SDS011;38667;42.872;74.622;2024-01-30T02:00:06;76.47;;;37.23;;
52798;SDS011;38667;42.872;74.622;2024-01-30T02:02:34;68.37;;;33.03;;
52798;SDS011;38667;42.872;74.622;2024-01-30T02:05:03;76.20;;;34.30;;
52798;SDS011;38667;42.872;74.622;2024-01-30T02:07:30;83.17;;;38.57;;
52798;SDS011;38667;42.872;74.622;2024-01-30T02:09:56;166.73;;;57.07;;
52798;SDS011;38667;42.872;74.622;2024-01-30T02:12:23;142.77;;;53.60;;
52798;SDS011;38667;42.872;74.622;2024-01-30T02:14:49;195.37;;;69.03;;
52798;SDS011;38667;42.872;74.622;2024-01-30T02:17:16;147.97;;;57.27;;
52798;SDS011;38667;42.872;74.622;2024-01-30T02:19:42;156.17;;;56.97;;
52798;SDS011;38667;42.872;74.622;2024-01-30T02:22:11;149.47;;;52.70;;
52798;SDS011;38667;42.872;74.622;2024-01-30T02:24:38;109.17;;;44.93;;
52798;SDS011;38667;42.872;74.622;2024-01-30T02:27:04;99.77;;;39.63;;
52798;SDS011;38667;42.872;74.622;2024-01-30T02:29:30;120.33;;;46.13;;
52798;SDS011;38667;42.872;74.622;2024-01-30T02:31:57;233.47;;;71.37;;
52798;SDS011;38667;42.872;74.622;2024-01-30T02:34:23;120.30;;;50.70;;
52798;SDS011;38667;42.872;74.622;2024-01-30T02:36:50;140.43;;;55.60;;
52798;SDS011;38667;42.872;74.622;2024-01-30T02:39:17;124.37;;;52.83;;
52798;SDS011;38667;42.872;74.622;2024-01-30T02:41:44;134.13;;;57.30;;
52798;SDS011;38667;42.872;74.622;2024-01-30T02:44:10;139.80;;;59.30;;
52798;SDS011;38667;42.872;74.622;2024-01-30T02:46:37;105.30;;;48.43;;
52798;SDS011;38667;42.872;74.622;2024-01-30T02:49:03;107.60;;;47.20;;
52798;SDS011;38667;42.872;74.622;2024-01-30T02:51:29;88.87;;;43.90;;
52798;SDS011;38667;42.872;74.622;2024-01-30T02:53:56;82.13;;;40.60;;
52798;SDS011;38667;42.872;74.622;2024-01-30T02:56:25;130.63;;;51.43;;
52798;SDS011;38667;42.872;74.622;2024-01-30T02:58:51;124.40;;;49.87;;
52798;SDS011;38667;42.872;74.622;2024-01-30T03:01:17;90.23;;;43.07;;
52798;SDS011;38667;42.872;74.622;2024-01-30T03:03:44;92.03;;;43.53;;
52798;SDS011;38667;42.872;74.622;2024-01-30T03:06:10;104.20;;;48.07;;
52798;SDS011;38667;42.872;74.622;2024-01-30T03:08:37;179.43;;;59.80;;
52798;SDS011;38667;42.872;74.622;2024-01-30T03:11:04;143.27;;;51.37;;
52798;SDS011;38667;42.872;74.622;2024-01-30T03:13:32;125.67;;;47.63;;
52798;SDS011;38667;42.872;74.622;2024-01-30T03:15:58;136.73;;;48.37;;
52798;SDS011;38667;42.872;74.622;2024-01-30T03:18:25;125.13;;;46.60;;
52798;SDS011;38667;42.872;74.622;2024-01-30T03:20:51;107.87;;;42.87;;
52798;SDS011;38667;42.872;74.622;2024-01-30T03:23:17;131.77;;;49.53;;
52798;SDS011;38667;42.872;74.622;2024-01-30T03:25:44;94.20;;;40.87;;
52798;SDS011;38667;42.872;74.622;2024-01-30T03:28:10;90.77;;;37.63;;
52798;SDS011;38667;42.872;74.622;2024-01-30T03:30:38;69.73;;;32.57;;
52798;SDS011;38667;42.872;74.622;2024-01-30T03:33:04;68.93;;;32.93;;
52798;SDS011;38667;42.872;74.622;2024-01-30T03:35:31;84.43;;;43.97;;
52798;SDS011;38667;42.872;74.622;2024-01-30T03:37:57;62.80;;;32.97;;
52798;SDS011;38667;42.872;74.622;2024-01-30T03:40:23;56.17;;;25.50;;
52798;SDS011;38667;42.872;74.622;2024-01-30T03:42:50;92.53;;;34.30;;
52798;SDS011;38667;42.872;74.622;2024-01-30T03:45:16;61.10;;;28.43;;
52798;SDS011;38667;42.872;74.622;2024-01-30T03:47:44;82.53;;;31.87;;
52798;SDS011;38667;42.872;74.622;2024-01-30T03:50:11;52.63;;;24.73;;
52798;SDS011;38667;42.872;74.622;2024-01-30T03:52:37;48.60;;;24.07;;
52798;SDS011;38667;42.872;74.622;2024-01-30T03:55:04;53.63;;;24.30;;
52798;SDS011;38667;42.872;74.622;2024-01-30T03:57:31;52.80;;;24.47;;
52798;SDS011;38667;42.872;74.622;2024-01-30T03:59:57;57.83;;;30.23;;
52798;SDS011;38667;42.872;74.622;2024-01-30T04:02:24;65.97;;;31.17;;
52798;SDS011;38667;42.872;74.622;2024-01-30T04:04:52;72.57;;;33.33;;
52798;SDS011;38667;42.872;74.622;2024-01-30T04:07:19;72.13;;;33.60;;
52798;SDS011;38667;42.872;74.622;2024-01-30T04:09:45;64.93;;;30.33;;
52798;SDS011;38667;42.872;74.622;2024-01-30T04:12:11;53.77;;;26.83;;
52798;SDS011;38667;42.872;74.622;2024-01-30T04:14:38;57.87;;;29.33;;
52798;SDS011;38667;42.872;74.622;2024-01-30T04:17:04;58.37;;;30.63;;
52798;SDS011;38667;42.872;74.622;2024-01-30T04:19:31;56.27;;;29.50;;
52798;SDS011;38667;42.872;74.622;2024-01-30T04:21:59;60.13;;;30.93;;
52798;SDS011;38667;42.872;74.622;2024-01-30T04:24:26;65.07;;;32.27;;
52798;SDS011;38667;42.872;74.622;2024-01-30T04:26:52;46.47;;;23.17;;
52798;SDS011;38667;42.872;74.622;2024-01-30T04:29:18;73.53;;;31.77;;
52798;SDS011;38667;42.872;74.622;2024-01-30T04:31:45;73.33;;;34.73;;
52798;SDS011;38667;42.872;74.622;2024-01-30T04:34:11;49.50;;;26.33;;
52798;SDS011;38667;42.872;74.622;2024-01-30T04:36:37;61.47;;;28.53;;
52798;SDS011;38667;42.872;74.622;2024-01-30T04:39:05;47.83;;;25.07;;
52798;SDS011;38667;42.872;74.622;2024-01-30T04:41:31;42.80;;;23.40;;
52798;SDS011;38667;42.872;74.622;2024-01-30T04:43:58;52.57;;;25.80;;
52798;SDS011;38667;42.872;74.622;2024-01-30T04:46:24;50.97;;;26.07;;
52798;SDS011;38667;42.872;74.622;2024-01-30T04:48:51;59.17;;;27.43;;
52798;SDS011;38667;42.872;74.622;2024-01-30T04:51:17;66.00;;;29.90;;
52798;SDS011;38667;42.872;74.622;2024-01-30T04:53:43;78.60;;;36.13;;
52798;SDS011;38667;42.872;74.622;2024-01-30T04:56:11;54.40;;;29.60;;
52798;SDS011;38667;42.872;74.622;2024-01-30T04:58:38;57.10;;;31.17;;
52798;SDS011;38667;42.872;74.622;2024-01-30T05:01:04;69.57;;;32.60;;
52798;SDS011;38667;42.872;74.622;2024-01-30T05:03:32;58.50;;;28.73;;
52798;SDS011;38667;42.872;74.622;2024-01-30T05:05:59;61.63;;;28.83;;
52798;SDS011;38667;42.872;74.622;2024-01-30T05:08:25;57.30;;;30.63;;
52798;SDS011;38667;42.872;74.622;2024-01-30T05:10:52;66.33;;;32.17;;
52798;SDS011;38667;42.872;74.622;2024-01-30T05:13:20;60.43;;;30.87;;
52798;SDS011;38667;42.872;74.622;2024-01-30T05:15:46;47.23;;;25.40;;
52798;SDS011;38667;42.872;74.622;2024-01-30T05:18:12;55.50;;;29.67;;
52798;SDS011;38667;42.872;74.622;2024-01-30T05:20:39;87.80;;;41.03;;
52798;SDS011;38667;42.872;74.622;2024-01-30T05:23:05;62.23;;;28.37;;
52798;SDS011;38667;42.872;74.622;2024-01-30T05:25:31;53.80;;;27.20;;
52798;SDS011;38667;42.872;74.622;2024-01-30T05:27:58;47.43;;;23.33;;
52798;SDS011;38667;42.872;74.622;2024-01-30T05:30:27;38.80;;;18.30;;
52798;SDS011;38667;42.872;74.622;2024-01-30T05:32:53;39.73;;;19.23;;
52798;SDS011;38667;42.872;74.622;2024-01-30T05:35:19;51.27;;;23.07;;
52798;SDS011;38667;42.872;74.622;2024-01-30T05:37:46;40.13;;;20.47;;
52798;SDS011;38667;42.872;74.622;2024-01-30T05:40:13;32.53;;;16.43;;
52798;SDS011;38667;42.872;74.622;2024-01-30T05:42:39;32.97;;;16.87;;
52798;SDS011;38667;42.872;74.622;2024-01-30T05:45:06;31.40;;;18.07;;
52798;SDS011;38667;42.872;74.622;2024-01-30T05:47:34;34.03;;;17.83;;
52798;SDS011;38667;42.872;74.622;2024-01-30T05:50:01;29.67;;;16.77;;
52798;SDS011;38667;42.872;74.622;2024-01-30T05:52:27;25.63;;;14.97;;
52798;SDS011;38667;42.872;74.622;2024-01-30T05:54:54;26.57;;;13.90;;
52798;SDS011;38667;42.872;74.622;2024-01-30T05:57:20;28.97;;;16.20;;
52798;SDS011;38667;42.872;74.622;2024-01-30T05:59:46;25.80;;;15.10;;
52798;SDS011;38667;42.872;74.622;2024-01-30T06:02:13;28.00;;;16.40;;
52798;SDS011;38667;42.872;74.622;2024-01-30T06:04:41;26.30;;;14.60;;
52798;SDS011;38667;42.872;74.622;2024-01-30T06:07:07;33.17;;;18.67;;
52798;SDS011;38667;42.872;74.622;2024-01-30T06:09:33;29.90;;;16.73;;
52798;SDS011;38667;42.872;74.622;2024-01-30T06:12:00;37.97;;;17.20;;
52798;SDS011;38667;42.872;74.622;2024-01-30T06:14:26;34.83;;;16.97;;
52798;SDS011;38667;42.872;74.622;2024-01-30T06:16:52;43.73;;;21.87;;
52798;SDS011;38667;42.872;74.622;2024-01-30T06:19:19;42.70;;;22.20;;
52798;SDS011;38667;42.872;74.622;2024-01-30T06:21:47;33.83;;;17.83;;
52798;SDS011;38667;42.872;74.622;2024-01-30T06:24:13;29.90;;;16.93;;
52798;SDS011;38667;42.872;74.622;2024-01-30T06:26:39;37.30;;;19.20;;
52798;SDS011;38667;42.872;74.622;2024-01-30T06:29:06;39.13;;;21.63;;
52798;SDS011;38667;42.872;74.622;2024-01-30T06:31:32;33.37;;;18.97;;
52798;SDS011;38667;42.872;74.622;2024-01-30T06:33:58;40.63;;;23.17;;
52798;SDS011;38667;42.872;74.622;2024-01-30T06:36:25;41.30;;;22.20;;
52798;SDS011;38667;42.872;74.622;2024-01-30T06:38:54;39.30;;;22.37;;
52798;SDS011;38667;42.872;74.622;2024-01-30T06:41:20;37.80;;;22.40;;
52798;SDS011;38667;42.872;74.622;2024-01-30T06:43:46;36.50;;;19.83;;
52798;SDS011;38667;42.872;74.622;2024-01-30T06:46:13;38.47;;;22.43;;
52798;SDS011;38667;42.872;74.622;2024-01-30T06:48:39;38.77;;;19.43;;
52798;SDS011;38667;42.872;74.622;2024-01-30T06:51:05;25.97;;;15.13;;
52798;SDS011;38667;42.872;74.622;2024-01-30T06:53:32;25.07;;;15.30;;
52798;SDS011;38667;42.872;74.622;2024-01-30T06:56:00;21.50;;;12.30;;
52798;SDS011;38667;42.872;74.622;2024-01-30T06:58:26;18.77;;;12.37;;
52798;SDS011;38667;42.872;74.622;2024-01-30T07:00:53;18.27;;;10.90;;
52798;SDS011;38667;42.872;74.622;2024-01-30T07:03:29;20.70;;;11.03;;
52798;SDS011;38667;42.872;74.622;2024-01-30T07:05:55;22.93;;;12.57;;
52798;SDS011;38667;42.872;74.622;2024-01-30T07:08:22;17.60;;;10.67;;
52798;SDS011;38667;42.872;74.622;2024-01-30T07:10:48;18.37;;;9.70;;
52798;SDS011;38667;42.872;74.622;2024-01-30T07:13:16;22.57;;;11.23;;
52798;SDS011;38667;42.872;74.622;2024-01-30T07:15:43;30.97;;;15.00;;
52798;SDS011;38667;42.872;74.622;2024-01-30T07:18:09;58.17;;;20.40;;
52798;SDS011;38667;42.872;74.622;2024-01-30T07:20:35;31.23;;;18.30;;
52798;SDS011;38667;42.872;74.622;2024-01-30T07:23:02;34.77;;;19.37;;
52798;SDS011;38667;42.872;74.622;2024-01-30T07:25:28;39.47;;;20.53;;
52798;SDS011;38667;42.872;74.622;2024-01-30T07:27:55;26.03;;;16.63;;
52798;SDS011;38667;42.872;74.622;2024-01-30T07:30:23;24.30;;;15.00;;
52798;SDS011;38667;42.872;74.622;2024-01-30T07:32:49;24.30;;;14.77;;
52798;SDS011;38667;42.872;74.622;2024-01-30T07:35:16;17.70;;;10.07;;
52798;SDS011;38667;42.872;74.622;2024-01-30T07:37:42;11.90;;;8.13;;
52798;SDS011;38667;42.872;74.622;2024-01-30T07:40:09;14.27;;;8.17;;
52798;SDS011;38667;42.872;74.622;2024-01-30T07:42:35;14.00;;;8.83;;
52798;SDS011;38667;42.872;74.622;2024-01-30T07:45:02;18.87;;;9.33;;
52798;SDS011;38667;42.872;74.622;2024-01-30T07:47:31;16.33;;;9.43;;
52798;SDS011;38667;42.872;74.622;2024-01-30T07:49:57;14.70;;;8.87;;
52798;SDS011;38667;42.872;74.622;2024-01-30T07:52:23;14.80;;;9.33;;
52798;SDS011;38667;42.872;74.622;2024-01-30T07:58:03;16.93;;;10.77;;
52798;SDS011;38667;42.872;74.622;2024-01-30T08:00:30;21.93;;;12.10;;
52798;SDS011;38667;42.872;74.622;2024-01-30T08:02:58;21.43;;;12.60;;
52798;SDS011;38667;42.872;74.622;2024-01-30T08:05:24;22.73;;;13.90;;
52798;SDS011;38667;42.872;74.622;2024-01-30T08:07:50;23.27;;;13.90;;
52798;SDS011;38667;42.872;74.622;2024-01-30T08:10:17;23.77;;;13.80;;
52798;SDS011;38667;42.872;74.622;2024-01-30T08:12:44;20.93;;;13.70;;
52798;SDS011;38667;42.872;74.622;2024-01-30T08:15:11;22.27;;;14.03;;
52798;SDS011;38667;42.872;74.622;2024-01-30T08:17:37;24.33;;;14.80;;
52798;SDS011;38667;42.872;74.622;2024-01-30T08:20:07;23.37;;;15.33;;
52798;SDS011;38667;42.872;74.622;2024-01-30T08:22:33;23.00;;;15.10;;
52798;SDS011;38667;42.872;74.622;2024-01-30T08:25:00;24.87;;;15.87;;
52798;SDS011;38667;42.872;74.622;2024-01-30T08:27:26;22.70;;;15.40;;
52798;SDS011;38667;42.872;74.622;2024-01-30T08:29:52;24.17;;;15.13;;
52798;SDS011;38667;42.872;74.622;2024-01-30T08:32:19;24.40;;;14.70;;
52798;SDS011;38667;42.872;74.622;2024-01-30T08:34:45;22.97;;;15.30;;
52798;SDS011;38667;42.872;74.622;2024-01-30T08:37:13;23.07;;;14.77;;
52798;SDS011;38667;42.872;74.622;2024-01-30T08:39:39;26.40;;;16.23;;
52798;SDS011;38667;42.872;74.622;2024-01-30T08:42:06;23.53;;;14.97;;
52798;SDS011;38667;42.872;74.622;2024-01-30T08:44:32;25.87;;;13.23;;
52798;SDS011;38667;42.872;74.622;2024-01-30T08:46:58;18.23;;;12.63;;
52798;SDS011;38667;42.872;74.622;2024-01-30T08:49:25;19.03;;;11.37;;
52798;SDS011;38667;42.872;74.622;2024-01-30T08:51:51;19.73;;;12.70;;
52798;SDS011;38667;42.872;74.622;2024-01-30T08:54:19;17.33;;;12.10;;
52798;SDS011;38667;42.872;74.622;2024-01-30T08:56:45;16.50;;;11.30;;
52798;SDS011;38667;42.872;74.622;2024-01-30T08:59:12;15.00;;;9.83;;
52798;SDS011;38667;42.872;74.622;2024-01-30T09:01:38;16.77;;;9.63;;
52798;SDS011;38667;42.872;74.622;2024-01-30T09:04:05;14.67;;;9.83;;
52798;SDS011;38667;42.872;74.622;2024-01-30T09:06:31;14.43;;;9.00;;
52798;SDS011;38667;42.872;74.622;2024-01-30T09:08:57;15.60;;;9.97;;
52798;SDS011;38667;42.872;74.622;2024-01-30T09:11:25;16.73;;;9.20;;
52798;SDS011;38667;42.872;74.622;2024-01-30T09:13:51;18.30;;;10.57;;
52798;SDS011;38667;42.872;74.622;2024-01-30T09:16:18;19.43;;;12.57;;
52798;SDS011;38667;42.872;74.622;2024-01-30T09:18:44;18.87;;;12.30;;
52798;SDS011;38667;42.872;74.622;2024-01-30T09:21:11;28.33;;;14.30;;
52798;SDS011;38667;42.872;74.622;2024-01-30T09:23:37;27.03;;;15.77;;
52798;SDS011;38667;42.872;74.622;2024-01-30T09:26:03;32.30;;;17.63;;
52798;SDS011;38667;42.872;74.622;2024-01-30T09:28:31;30.10;;;17.27;;
52798;SDS011;38667;42.872;74.622;2024-01-30T09:30:58;30.97;;;18.63;;
52798;SDS011;38667;42.872;74.622;2024-01-30T09:33:24;41.50;;;22.87;;
52798;SDS011;38667;42.872;74.622;2024-01-30T09:35:51;43.43;;;24.57;;
52798;SDS011;38667;42.872;74.622;2024-01-30T09:38:17;39.43;;;22.90;;
52798;SDS011;38667;42.872;74.622;2024-01-30T09:40:43;40.57;;;21.47;;
52798;SDS011;38667;42.872;74.622;2024-01-30T09:43:14;40.83;;;22.67;;
52798;SDS011;38667;42.872;74.622;2024-01-30T09:45:47;39.43;;;22.53;;
52798;SDS011;38667;42.872;74.622;2024-01-30T09:48:15;39.37;;;20.63;;
52798;SDS011;38667;42.872;74.622;2024-01-30T09:50:41;34.33;;;19.37;;
52798;SDS011;38667;42.872;74.622;2024-01-30T09:53:08;27.43;;;16.20;;
52798;SDS011;38667;42.872;74.622;2024-01-30T09:55:34;31.90;;;18.23;;
52798;SDS011;38667;42.872;74.622;2024-01-30T09:58:02;35.97;;;19.37;;
52798;SDS011;38667;42.872;74.622;2024-01-30T10:00:28;35.43;;;19.60;;
52798;SDS011;38667;42.872;74.622;2024-01-30T10:02:57;32.50;;;18.53;;
52798;SDS011;38667;42.872;74.622;2024-01-30T10:05:23;38.63;;;20.13;;
52798;SDS011;38667;42.872;74.622;2024-01-30T10:07:53;37.33;;;21.00;;
52798;SDS011;38667;42.872;74.622;2024-01-30T10:10:21;32.83;;;18.37;;
52798;SDS011;38667;42.872;74.622;2024-01-30T10:12:48;34.13;;;17.87;;
52798;SDS011;38667;42.872;74.622;2024-01-30T10:15:14;35.40;;;18.97;;
52798;SDS011;38667;42.872;74.622;2024-01-30T10:17:42;34.50;;;17.97;;
52798;SDS011;38667;42.872;74.622;2024-01-30T10:20:11;27.30;;;14.47;;
52798;SDS011;38667;42.872;74.622;2024-01-30T10:22:38;24.07;;;14.27;;
52798;SDS011;38667;42.872;74.622;2024-01-30T10:25:06;25.43;;;14.00;;
52798;SDS011;38667;42.872;74.622;2024-01-30T10:27:32;22.13;;;13.10;;
52798;SDS011;38667;42.872;74.622;2024-01-30T10:29:59;24.37;;;13.57;;
52798;SDS011;38667;42.872;74.622;2024-01-30T10:32:25;22.97;;;13.17;;
52798;SDS011;38667;42.872;74.622;2024-01-30T10:34:52;23.50;;;13.60;;
52798;SDS011;38667;42.872;74.622;2024-01-30T10:37:20;26.03;;;14.03;;
52798;SDS011;38667;42.872;74.622;2024-01-30T10:39:50;22.13;;;12.77;;
52798;SDS011;38667;42.872;74.622;2024-01-30T10:42:19;22.07;;;12.80;;
52798;SDS011;38667;42.872;74.622;2024-01-30T10:44:53;22.83;;;11.83;;
52798;SDS011;38667;42.872;74.622;2024-01-30T10:47:26;21.40;;;12.13;;
52798;SDS011;38667;42.872;74.622;2024-01-30T10:49:53;21.70;;;11.57;;
52798;SDS011;38667;42.872;74.622;2024-01-30T10:52:22;19.20;;;9.80;;
52798;SDS011;38667;42.872;74.622;2024-01-30T10:54:49;19.00;;;10.40;;
52798;SDS011;38667;42.872;74.622;2024-01-30T10:57:16;17.03;;;9.77;;
52798;SDS011;38667;42.872;74.622;2024-01-30T10:59:43;19.97;;;10.60;;
52798;SDS011;38667;42.872;74.622;2024-01-30T11:02:10;19.17;;;11.47;;
52798;SDS011;38667;42.872;74.622;2024-01-30T11:04:37;20.27;;;11.23;;
52798;SDS011;38667;42.872;74.622;2024-01-30T11:07:13;24.30;;;12.60;;
52798;SDS011;38667;42.872;74.622;2024-01-30T11:09:47;20.07;;;10.70;;
52798;SDS011;38667;42.872;74.622;2024-01-30T11:12:14;20.57;;;11.13;;
52798;SDS011;38667;42.872;74.622;2024-01-30T11:14:40;24.47;;;11.80;;
52798;SDS011;38667;42.872;74.622;2024-01-30T11:17:07;22.03;;;12.20;;
52798;SDS011;38667;42.872;74.622;2024-01-30T11:19:35;20.90;;;12.80;;
52798;SDS011;38667;42.872;74.622;2024-01-30T11:22:02;24.57;;;12.50;;
52798;SDS011;38667;42.872;74.622;2024-01-30T11:24:28;23.47;;;11.87;;
52798;SDS011;38667;42.872;74.622;2024-01-30T11:26:57;23.00;;;12.60;;
52798;SDS011;38667;42.872;74.622;2024-01-30T11:29:24;24.93;;;12.53;;
52798;SDS011;38667;42.872;74.622;2024-01-30T11:31:54;27.60;;;13.33;;
52798;SDS011;38667;42.872;74.622;2024-01-30T11:34:21;23.73;;;11.97;;
52798;SDS011;38667;42.872;74.622;2024-01-30T11:36:48;23.87;;;12.57;;
52798;SDS011;38667;42.872;74.622;2024-01-30T11:39:17;23.43;;;12.60;;
52798;SDS011;38667;42.872;74.622;2024-01-30T11:41:46;22.80;;;11.97;;
52798;SDS011;38667;42.872;74.622;2024-01-30T11:44:17;21.90;;;11.33;;
52798;SDS011;38667;42.872;74.622;2024-01-30T11:46:44;26.27;;;13.60;;
52798;SDS011;38667;42.872;74.622;2024-01-30T11:49:10;24.80;;;13.57;;
52798;SDS011;38667;42.872;74.622;2024-01-30T11:51:37;27.13;;;14.20;;
52798;SDS011;38667;42.872;74.622;2024-01-30T11:54:03;23.33;;;12.60;;
52798;SDS011;38667;42.872;74.622;2024-01-30T11:56:30;24.43;;;12.80;;
52798;SDS011;38667;42.872;74.622;2024-01-30T11:58:56;27.50;;;13.90;;
52798;SDS011;38667;42.872;74.622;2024-01-30T12:01:24;26.63;;;14.37;;
52798;SDS011;38667;42.872;74.622;2024-01-30T12:03:51;31.33;;;16.13;;
52798;SDS011;38667;42.872;74.622;2024-01-30T12:06:17;26.13;;;15.00;;
52798;SDS011;38667;42.872;74.622;2024-01-30T12:08:54;28.97;;;14.07;;
52798;SDS011;38667;42.872;74.622;2024-01-30T12:11:22;29.30;;;15.43;;
52798;SDS011;38667;42.872;74.622;2024-01-30T12:13:48;29.60;;;15.63;;
52798;SDS011;38667;42.872;74.622;2024-01-30T12:16:16;25.53;;;14.07;;
52798;SDS011;38667;42.872;74.622;2024-01-30T12:18:44;27.30;;;15.27;;
52798;SDS011;38667;42.872;74.622;2024-01-30T12:21:10;26.63;;;14.43;;
52798;SDS011;38667;42.872;74.622;2024-01-30T12:23:37;28.33;;;14.90;;
52798;SDS011;38667;42.872;74.622;2024-01-30T12:26:03;26.00;;;15.27;;
52798;SDS011;38667;42.872;74.622;2024-01-30T12:28:30;33.73;;;17.63;;
52798;SDS011;38667;42.872;74.622;2024-01-30T12:30:56;32.77;;;16.77;;
52798;SDS011;38667;42.872;74.622;2024-01-30T12:33:27;35.40;;;16.43;;
52798;SDS011;38667;42.872;74.622;2024-01-30T12:35:55;34.27;;;17.00;;
52798;SDS011;38667;42.872;74.622;2024-01-30T12:38:22;32.20;;;17.70;;
52798;SDS011;38667;42.872;74.622;2024-01-30T12:40:48;33.83;;;17.50;;
52798;SDS011;38667;42.872;74.622;2024-01-30T12:43:15;38.80;;;17.97;;
52798;SDS011;38667;42.872;74.622;2024-01-30T12:45:41;36.87;;;18.77;;
52798;SDS011;38667;42.872;74.622;2024-01-30T12:48:08;37.50;;;19.33;;
52798;SDS011;38667;42.872;74.622;2024-01-30T12:50:34;39.03;;;19.33;;
52798;SDS011;38667;42.872;74.622;2024-01-30T12:53:02;41.83;;;20.27;;
52798;SDS011;38667;42.872;74.622;2024-01-30T12:55:29;36.40;;;19.10;;
52798;SDS011;38667;42.872;74.622;2024-01-30T12:57:55;36.90;;;18.50;;
52798;SDS011;38667;42.872;74.622;2024-01-30T13:00:22;37.13;;;18.27;;
52798;SDS011;38667;42.872;74.622;2024-01-30T13:02:48;38.63;;;20.27;;
52798;SDS011;38667;42.872;74.622;2024-01-30T13:05:14;39.63;;;19.23;;
52798;SDS011;38667;42.872;74.622;2024-01-30T13:07:41;38.53;;;19.97;;
52798;SDS011;38667;42.872;74.622;2024-01-30T13:10:10;33.47;;;18.77;;
52798;SDS011;38667;42.872;74.622;2024-01-30T13:12:36;34.60;;;19.00;;
52798;SDS011;38667;42.872;74.622;2024-01-30T13:15:03;37.73;;;18.83;;
52798;SDS011;38667;42.872;74.622;2024-01-30T13:17:30;40.23;;;20.23;;
52798;SDS011;38667;42.872;74.622;2024-01-30T13:19:56;35.67;;;19.30;;
52798;SDS011;38667;42.872;74.622;2024-01-30T13:22:23;34.17;;;18.50;;
52798;SDS011;38667;42.872;74.622;2024-01-30T13:24:49;35.97;;;17.97;;
52798;SDS011;38667;42.872;74.622;2024-01-30T13:27:17;36.33;;;19.10;;
52798;SDS011;38667;42.872;74.622;2024-01-30T13:29:45;39.33;;;20.40;;
52798;SDS011;38667;42.872;74.622;2024-01-30T13:32:12;39.60;;;18.77;;
52798;SDS011;38667;42.872;74.622;2024-01-30T13:34:38;30.40;;;17.33;;
52798;SDS011;38667;42.872;74.622;2024-01-30T13:37:05;42.47;;;20.60;;
52798;SDS011;38667;42.872;74.622;2024-01-30T13:39:31;32.67;;;17.27;;
52798;SDS011;38667;42.872;74.622;2024-01-30T13:41:58;29.83;;;16.27;;
52798;SDS011;38667;42.872;74.622;2024-01-30T13:44:25;36.30;;;19.10;;
52798;SDS011;38667;42.872;74.622;2024-01-30T13:46:52;33.60;;;17.90;;
52798;SDS011;38667;42.872;74.622;2024-01-30T13:49:19;41.67;;;21.73;;
52798;SDS011;38667;42.872;74.622;2024-01-30T13:51:45;40.23;;;20.90;;
52798;SDS011;38667;42.872;74.622;2024-01-30T13:54:11;42.13;;;20.80;;
52798;SDS011;38667;42.872;74.622;2024-01-30T13:56:38;45.03;;;22.20;;
52798;SDS011;38667;42.872;74.622;2024-01-30T13:59:04;42.10;;;20.67;;
52798;SDS011;38667;42.872;74.622;2024-01-30T14:01:32;41.00;;;21.57;;
52798;SDS011;38667;42.872;74.622;2024-01-30T14:03:58;41.40;;;21.00;;
52798;SDS011;38667;42.872;74.622;2024-01-30T14:06:25;41.43;;;20.80;;
52798;SDS011;38667;42.872;74.622;2024-01-30T14:08:51;37.17;;;20.03;;